Time;durP1;ratioP1;P1;durP2;ratioP2;P2;SDS_P1;SDS_P2;PMS_P1;PMS_P2;Temp;Humidity;BMP_temperature;BMP_pressure;BME280_temperature;BME280_humidity;BME280_pressure;Samples;Min_cycle;Max_cycle;Signal;HPM_P1;HPM_P2
2022/05/03 00:01:46;;;;;;;9.68;6.50;;;15.90;79.40;;;;;;5034416;28;20022;-78
2022/05/03 00:04:37;;;;;;;8.10;5.88;;;15.80;79.00;;;;;;5034672;28;20022;-75
2022/05/03 00:07:44;;;;;;;13.77;6.22;;;15.80;79.70;;;;;;5049392;28;20033;-76
2022/05/03 00:10:23;;;;;;;9.77;5.95;;;15.70;80.10;;;;;;5033421;28;20021;-75
2022/05/03 00:12:55;;;;;;;9.45;5.60;;;15.70;80.00;;;;;;5048713;28;20437;-74
2022/05/03 00:15:22;;;;;;;10.23;5.68;;;15.70;79.60;;;;;;5033400;28;20112;-75
2022/05/03 00:17:49;;;;;;;11.23;5.70;;;15.70;79.60;;;;;;5033489;28;20030;-77
2022/05/03 00:20:15;;;;;;;9.88;6.22;;;15.70;79.50;;;;;;5033448;28;20021;-74
2022/05/03 00:22:43;;;;;;;8.73;5.57;;;15.70;80.00;;;;;;5032240;28;20034;-74
2022/05/03 00:25:11;;;;;;;8.18;5.50;;;15.70;79.70;;;;;;5033285;28;20057;-74
2022/05/03 00:27:37;;;;;;;9.00;5.25;;;15.70;80.10;;;;;;5033621;28;20029;-74
2022/05/03 00:30:05;;;;;;;8.07;5.25;;;15.70;79.90;;;;;;5033536;28;20391;-74
2022/05/03 00:32:31;;;;;;;9.93;5.40;;;15.60;79.90;;;;;;5033123;28;20059;-74
2022/05/03 00:34:58;;;;;;;8.75;4.93;;;15.60;80.20;;;;;;5032877;28;20068;-75
2022/05/03 00:37:24;;;;;;;8.85;5.10;;;15.60;80.30;;;;;;5033069;28;20025;-75
2022/05/03 00:39:51;;;;;;;7.05;4.93;;;15.60;80.30;;;;;;5048431;28;20494;-76
2022/05/03 00:42:22;;;;;;;10.75;5.47;;;15.50;80.60;;;;;;5033434;28;20029;-74
2022/05/03 00:45:30;;;;;;;7.82;5.05;;;15.50;80.70;;;;;;5033582;28;20104;-78
2022/05/03 00:48:19;;;;;;;9.02;5.45;;;15.50;80.80;;;;;;5043162;28;20049;-78
2022/05/03 00:51:12;;;;;;;7.78;5.00;;;15.50;80.70;;;;;;5033877;28;20026;-75
2022/05/03 00:54:05;;;;;;;8.13;5.00;;;15.50;80.90;;;;;;5033985;28;20045;-73
2022/05/03 00:57:01;;;;;;;7.70;5.30;;;15.50;80.60;;;;;;5053558;28;20041;-76
2022/05/03 01:00:00;;;;;;;8.38;5.47;;;15.60;80.80;;;;;;5038867;28;20040;-76
2022/05/03 01:02:41;;;;;;;8.48;5.18;;;15.50;80.80;;;;;;5054702;28;20028;-74
2022/05/03 01:05:10;;;;;;;10.27;5.20;;;15.50;80.70;;;;;;5039004;28;20068;-75
2022/05/03 01:07:41;;;;;;;9.45;5.57;;;15.50;80.80;;;;;;5038685;28;20029;-79
2022/05/03 01:10:26;;;;;;;9.52;5.18;;;15.50;81.00;;;;;;5037759;28;20026;-74
2022/05/03 01:13:06;;;;;;;13.73;5.70;;;15.40;81.20;;;;;;5037214;28;20029;-78
2022/05/03 01:15:36;;;;;;;6.97;4.65;;;15.30;81.70;;;;;;5037066;28;20467;-74
2022/05/03 01:18:20;;;;;;;9.25;4.85;;;15.40;81.50;;;;;;5037272;28;20042;-74
2022/05/03 01:21:16;;;;;;;10.75;5.28;;;15.40;81.20;;;;;;5037616;28;20060;-76
2022/05/03 01:23:59;;;;;;;8.70;4.95;;;15.30;81.50;;;;;;5052085;28;20116;-75
2022/05/03 01:26:52;;;;;;;6.57;4.60;;;15.30;81.70;;;;;;5052164;28;20113;-74
2022/05/03 01:29:34;;;;;;;9.45;4.97;;;15.30;82.10;;;;;;5036656;28;20018;-74
2022/05/03 01:32:04;;;;;;;7.50;4.68;;;15.20;82.00;;;;;;5036798;28;20021;-77
2022/05/03 01:34:31;;;;;;;9.20;4.72;;;15.20;82.40;;;;;;5051966;28;20030;-77
2022/05/03 01:37:00;;;;;;;7.68;4.30;;;15.20;81.90;;;;;;5036486;28;20063;-77
2022/05/03 01:39:44;;;;;;;7.30;4.45;;;15.20;81.80;;;;;;5036786;28;20018;-78
2022/05/03 01:42:12;;;;;;;6.50;4.57;;;15.20;81.70;;;;;;5036570;28;20059;-77
2022/05/03 01:44:53;;;;;;;8.10;5.25;;;15.20;81.90;;;;;;5036538;28;20108;-78
2022/05/03 01:47:32;;;;;;;6.75;4.40;;;15.20;81.50;;;;;;5036301;28;20423;-74
2022/05/03 01:50:20;;;;;;;7.18;4.07;;;15.10;81.60;;;;;;5035871;28;20072;-76
2022/05/03 01:53:05;;;;;;;8.02;4.13;;;15.10;81.80;;;;;;5036046;28;20021;-75
2022/05/03 01:55:52;;;;;;;7.22;4.75;;;15.20;81.90;;;;;;5036458;28;20084;-75
2022/05/03 01:58:43;;;;;;;7.28;3.90;;;15.20;81.70;;;;;;5036182;28;20029;-77
2022/05/03 02:01:17;;;;;;;7.25;3.65;;;15.20;81.50;;;;;;5036085;28;20508;-78
2022/05/03 02:03:53;;;;;;;8.02;3.85;;;15.20;81.30;;;;;;5050793;28;20030;-74
2022/05/03 02:06:54;;;;;;;7.88;4.65;;;15.30;81.00;;;;;;5018624;28;20151;-73
2022/05/03 02:09:30;;;;;;;12.50;4.50;;;15.20;81.50;;;;;;5035703;28;20032;-74
2022/05/03 02:12:13;;;;;;;8.20;5.13;;;15.20;81.40;;;;;;5035779;28;20025;-75
2022/05/03 02:14:50;;;;;;;5.53;3.80;;;15.10;81.30;;;;;;5035500;28;20026;-74
2022/05/03 02:17:40;;;;;;;7.22;5.03;;;15.10;81.80;;;;;;5035573;28;20059;-78
2022/05/03 02:20:10;;;;;;;8.55;4.65;;;15.10;82.10;;;;;;5035553;28;20083;-75
2022/05/03 02:22:50;;;;;;;7.55;4.47;;;15.10;82.20;;;;;;5035604;28;20026;-76
2022/05/03 02:25:43;;;;;;;6.50;4.13;;;15.10;82.40;;;;;;5035203;28;20109;-75
2022/05/03 02:28:23;;;;;;;8.00;4.22;;;15.00;82.40;;;;;;5035496;28;20032;-75
2022/05/03 02:30:51;;;;;;;8.18;4.40;;;15.00;82.90;;;;;;5050590;28;20122;-74
2022/05/03 02:33:25;;;;;;;9.20;4.68;;;15.00;82.60;;;;;;5035330;28;20022;-75
2022/05/03 02:35:55;;;;;;;7.68;4.30;;;14.90;82.90;;;;;;5034842;28;20042;-75
2022/05/03 02:38:30;;;;;;;7.38;4.30;;;14.80;82.90;;;;;;5035220;28;20433;-74
2022/05/03 02:41:00;;;;;;;7.35;4.10;;;14.80;83.30;;;;;;5033791;28;20474;-74
2022/05/03 02:43:29;;;;;;;7.32;4.20;;;14.90;83.60;;;;;;5035020;28;20445;-75
2022/05/03 02:46:32;;;;;;;8.43;4.53;;;14.80;83.40;;;;;;5033803;28;20536;-76
2022/05/03 02:49:03;;;;;;;9.18;4.60;;;14.80;83.90;;;;;;5050290;28;20462;-73
2022/05/03 02:51:40;;;;;;;7.43;4.30;;;14.80;83.60;;;;;;5035176;28;20041;-75
2022/05/03 02:54:14;;;;;;;7.63;4.80;;;14.80;83.80;;;;;;5033655;28;20060;-75
2022/05/03 02:56:50;;;;;;;8.73;4.60;;;14.80;83.90;;;;;;5034872;28;20038;-74
2022/05/03 03:01:47;;;;;;;7.68;4.22;;;14.80;84.50;;;;;;5034791;28;20018;-75
2022/05/03 03:02:23;;;;;;;7.70;4.55;;;14.80;84.60;;;;;;5034690;28;20033;-73
2022/05/03 03:05:05;;;;;;;6.82;4.93;;;14.80;84.60;;;;;;5033412;28;20052;-73
2022/05/03 03:08:04;;;;;;;7.60;4.57;;;14.80;84.60;;;;;;5034771;28;20033;-74
2022/05/03 03:10:41;;;;;;;8.75;5.10;;;14.80;84.70;;;;;;5027781;28;20105;-73
2022/05/03 03:13:09;;;;;;;10.57;5.30;;;14.80;84.60;;;;;;5034728;28;20021;-74
2022/05/03 03:15:38;;;;;;;12.10;5.38;;;14.80;84.60;;;;;;5049317;28;20025;-74
2022/05/03 03:18:12;;;;;;;7.30;5.07;;;14.80;84.50;;;;;;5034422;28;20045;-73
2022/05/03 03:20:44;;;;;;;12.00;5.45;;;14.80;84.10;;;;;;5034476;28;20025;-74
2022/05/03 03:23:18;;;;;;;7.85;6.15;;;14.80;84.40;;;;;;5034285;28;20025;-73
2022/05/03 03:25:47;;;;;;;9.50;5.38;;;14.80;84.30;;;;;;5032850;28;20080;-74
2022/05/03 03:28:16;;;;;;;10.32;6.13;;;14.70;84.00;;;;;;5034245;28;20111;-74
2022/05/03 03:30:44;;;;;;;10.93;6.00;;;14.70;83.80;;;;;;5049454;28;20535;-74
2022/05/03 03:33:12;;;;;;;7.90;5.68;;;14.70;84.10;;;;;;5034117;28;20079;-74
2022/05/03 03:35:41;;;;;;;8.38;6.63;;;14.70;84.20;;;;;;5033914;28;20068;-74
2022/05/03 03:38:09;;;;;;;8.30;5.28;;;14.70;84.50;;;;;;5049238;28;20120;-74
2022/05/03 03:40:35;;;;;;;11.40;6.25;;;14.70;84.20;;;;;;5032705;28;20128;-73
2022/05/03 03:43:00;;;;;;;9.20;5.78;;;14.70;84.40;;;;;;5033864;28;20514;-74
2022/05/03 03:45:27;;;;;;;9.40;5.75;;;14.70;84.40;;;;;;5033869;28;20027;-74
2022/05/03 03:47:56;;;;;;;11.02;5.97;;;14.70;84.80;;;;;;5033966;28;20022;-73
2022/05/03 03:50:25;;;;;;;9.68;6.25;;;14.70;84.80;;;;;;5049118;28;20079;-74
2022/05/03 03:52:52;;;;;;;16.58;5.90;;;14.60;84.60;;;;;;5033997;28;20026;-74
2022/05/03 03:55:18;;;;;;;9.70;5.40;;;14.60;84.80;;;;;;5033672;28;20030;-74
2022/05/03 03:57:45;;;;;;;7.97;5.53;;;14.60;84.40;;;;;;5032329;28;20462;-75
2022/05/03 04:00:13;;;;;;;11.68;5.72;;;14.70;84.40;;;;;;5033684;28;20021;-74
2022/05/03 04:02:45;;;;;;;9.55;6.03;;;14.70;84.20;;;;;;5033707;28;20032;-74
2022/05/03 04:05:19;;;;;;;10.25;5.93;;;14.60;84.20;;;;;;5048739;28;20025;-74
2022/05/03 04:07:45;;;;;;;11.57;5.18;;;14.60;84.80;;;;;;5033646;28;20060;-76
2022/05/03 04:10:11;;;;;;;9.68;5.75;;;14.70;84.40;;;;;;5033896;28;20045;-75
2022/05/03 04:12:37;;;;;;;8.35;5.60;;;14.70;84.00;;;;;;5033505;28;20444;-74
2022/05/03 04:15:03;;;;;;;7.35;5.40;;;14.60;84.40;;;;;;5033639;28;20500;-74
2022/05/03 04:17:29;;;;;;;7.55;5.20;;;14.70;84.60;;;;;;5033575;28;20037;-73
2022/05/03 04:19:55;;;;;;;8.88;5.55;;;14.60;84.60;;;;;;5033674;28;20364;-77
2022/05/03 04:22:27;;;;;;;10.50;5.45;;;14.60;85.10;;;;;;5033185;28;20414;-73
2022/05/03 04:24:52;;;;;;;10.18;6.00;;;14.60;85.10;;;;;;5033095;28;20053;-74
2022/05/03 04:27:19;;;;;;;9.70;5.68;;;14.60;85.30;;;;;;5032242;28;20060;-73
2022/05/03 04:29:45;;;;;;;11.02;6.40;;;14.60;85.40;;;;;;5032037;28;20025;-76
2022/05/03 04:32:11;;;;;;;11.15;5.85;;;14.60;85.30;;;;;;5032087;28;20594;-75
2022/05/03 04:34:36;;;;;;;9.30;5.90;;;14.60;85.30;;;;;;5031677;28;20382;-74
2022/05/03 04:37:03;;;;;;;7.97;5.70;;;14.60;85.20;;;;;;5033160;28;20505;-75
2022/05/03 04:39:29;;;;;;;7.95;5.55;;;14.50;85.40;;;;;;5033271;28;20021;-75
2022/05/03 04:41:55;;;;;;;8.30;4.93;;;14.50;85.00;;;;;;5033184;28;20029;-74
2022/05/03 04:44:21;;;;;;;7.43;4.68;;;14.60;84.80;;;;;;5048718;28;20410;-75
2022/05/03 04:46:46;;;;;;;6.40;4.50;;;14.50;83.90;;;;;;5032911;28;20080;-74
2022/05/03 04:49:12;;;;;;;9.73;4.60;;;14.50;83.80;;;;;;5033249;28;20018;-73
2022/05/03 04:51:38;;;;;;;9.90;5.25;;;14.50;84.00;;;;;;5048325;28;20382;-73
2022/05/03 04:54:04;;;;;;;8.75;5.40;;;14.50;84.10;;;;;;5031636;28;20022;-76
2022/05/03 04:56:29;;;;;;;12.40;5.88;;;14.50;84.00;;;;;;5031645;28;20041;-75
2022/05/03 04:58:55;;;;;;;9.93;5.82;;;14.50;83.80;;;;;;5031464;28;20445;-74
2022/05/03 05:01:22;;;;;;;14.65;6.07;;;14.60;84.00;;;;;;5031655;28;20030;-75
2022/05/03 05:03:49;;;;;;;10.18;5.78;;;14.60;83.90;;;;;;5032905;28;20029;-75
2022/05/03 05:06:15;;;;;;;10.05;6.43;;;14.60;83.70;;;;;;5032835;28;20025;-75
2022/05/03 05:08:42;;;;;;;10.30;6.65;;;14.60;83.80;;;;;;5032878;28;20116;-75
2022/05/03 05:11:09;;;;;;;11.50;6.85;;;14.70;83.50;;;;;;5033017;28;20105;-78
2022/05/03 05:13:36;;;;;;;11.57;6.45;;;14.80;82.90;;;;;;5031600;28;20145;-75
2022/05/03 05:16:02;;;;;;;12.05;6.40;;;15.00;82.90;;;;;;5031532;28;20107;-74
2022/05/03 05:18:28;;;;;;;9.40;6.40;;;15.10;82.20;;;;;;5031664;28;20108;-77
2022/05/03 05:20:55;;;;;;;11.52;6.97;;;15.20;81.70;;;;;;5032849;28;20112;-74
2022/05/03 05:23:21;;;;;;;9.57;6.45;;;15.30;81.10;;;;;;5031665;28;20049;-75
2022/05/03 05:25:47;;;;;;;10.73;7.13;;;15.40;80.70;;;;;;5032563;28;20482;-77
2022/05/03 05:28:15;;;;;;;10.27;6.72;;;15.50;80.10;;;;;;5032741;28;20025;-76
2022/05/03 05:30:41;;;;;;;9.23;6.25;;;15.60;79.30;;;;;;5032600;28;20478;-76
2022/05/03 05:33:07;;;;;;;12.27;6.10;;;15.70;79.10;;;;;;5047960;28;20116;-75
2022/05/03 05:35:33;;;;;;;9.00;6.13;;;15.90;78.70;;;;;;5031210;28;20517;-76
2022/05/03 05:37:59;;;;;;;11.85;6.80;;;16.00;78.30;;;;;;5033178;28;20041;-76
2022/05/03 05:40:24;;;;;;;9.80;6.50;;;16.20;77.60;;;;;;5051160;28;20072;-77
2022/05/03 05:42:51;;;;;;;9.80;6.35;;;16.40;76.80;;;;;;5036033;28;20390;-76
2022/05/03 05:45:17;;;;;;;12.07;6.47;;;16.50;75.80;;;;;;5036216;28;20044;-76
2022/05/03 05:47:43;;;;;;;11.32;7.55;;;16.60;75.20;;;;;;5034690;28;20478;-76
2022/05/03 05:50:11;;;;;;;13.50;6.95;;;16.70;74.40;;;;;;5035533;28;20101;-75
2022/05/03 05:55:22;;;;;;;12.20;6.07;;;17.00;73.00;;;;;;5035799;28;20068;-76
2022/05/03 05:57:49;;;;;;;11.68;5.95;;;17.20;72.00;;;;;;5035545;28;20133;-75
2022/05/03 06:00:17;;;;;;;11.98;6.20;;;17.40;71.80;;;;;;5036252;28;20021;-75
2022/05/03 06:02:45;;;;;;;11.52;6.28;;;17.60;70.60;;;;;;5037000;28;20037;-75
2022/05/03 06:05:11;;;;;;;8.95;6.30;;;17.80;70.00;;;;;;5035215;28;20030;-76
2022/05/03 06:07:38;;;;;;;11.32;6.35;;;17.90;68.70;;;;;;5035212;28;20056;-76
2022/05/03 06:10:07;;;;;;;12.60;6.60;;;18.00;68.70;;;;;;5034088;28;20099;-74
2022/05/03 06:12:33;;;;;;;9.05;5.53;;;18.00;67.80;;;;;;5050847;28;20033;-74
2022/05/03 06:14:59;;;;;;;9.70;5.35;;;18.10;67.10;;;;;;5035825;28;20030;-74
2022/05/03 06:17:24;;;;;;;7.50;5.18;;;18.20;66.70;;;;;;5036035;28;20038;-76
2022/05/03 06:19:50;;;;;;;9.15;5.45;;;18.30;66.60;;;;;;5035221;28;20104;-75
2022/05/03 06:22:16;;;;;;;10.00;5.70;;;18.40;66.00;;;;;;5035383;28;20021;-76
2022/05/03 06:24:45;;;;;;;9.98;4.82;;;18.70;66.20;;;;;;5034884;28;20033;-76
2022/05/03 06:27:13;;;;;;;16.33;5.15;;;18.80;64.40;;;;;;5035003;28;20343;-78
2022/05/03 06:29:39;;;;;;;13.73;4.90;;;18.80;63.70;;;;;;5050421;28;20406;-75
2022/05/03 06:32:06;;;;;;;8.27;5.10;;;18.90;63.90;;;;;;5033714;28;20033;-77
2022/05/03 06:34:31;;;;;;;11.27;5.40;;;19.10;62.60;;;;;;5034734;28;20024;-76
2022/05/03 06:36:58;;;;;;;14.45;6.20;;;19.10;63.60;;;;;;5034461;28;20146;-74
2022/05/03 06:39:27;;;;;;;14.63;5.78;;;19.30;63.30;;;;;;5034752;28;20025;-80
2022/05/03 06:41:52;;;;;;;10.73;6.55;;;19.40;63.30;;;;;;5035035;28;20026;-78
2022/05/03 06:44:19;;;;;;;18.60;6.68;;;19.60;63.10;;;;;;5034515;28;20052;-79
2022/05/03 06:46:47;;;;;;;13.25;6.65;;;19.80;62.80;;;;;;5034711;28;20029;-77
2022/05/03 06:49:15;;;;;;;13.57;6.30;;;20.00;60.30;;;;;;5033920;28;20041;-76
2022/05/03 06:51:41;;;;;;;13.95;7.30;;;20.00;60.40;;;;;;5033093;28;20026;-74
2022/05/03 06:54:07;;;;;;;11.57;6.22;;;20.10;61.20;;;;;;5034339;28;20021;-76
2022/05/03 06:56:35;;;;;;;13.35;6.65;;;19.90;60.60;;;;;;5034215;28;20033;-75
2022/05/03 06:59:03;;;;;;;12.32;6.35;;;19.70;60.70;;;;;;5034328;28;20021;-78
2022/05/03 07:01:29;;;;;;;17.77;5.80;;;19.70;61.40;;;;;;5033205;28;20380;-78
2022/05/03 07:03:55;;;;;;;10.40;6.05;;;19.90;61.00;;;;;;5034202;28;20052;-80
2022/05/03 07:06:21;;;;;;;13.10;5.22;;;20.10;60.80;;;;;;5034443;28;20034;-80
2022/05/03 07:08:48;;;;;;;12.00;4.57;;;20.20;60.10;;;;;;5034599;28;20017;-74
2022/05/03 07:11:17;;;;;;;10.43;5.65;;;20.40;59.50;;;;;;5033908;28;20105;-74
2022/05/03 07:13:43;;;;;;;9.32;5.13;;;20.50;58.90;;;;;;5033945;28;20032;-74
2022/05/03 07:16:09;;;;;;;9.73;4.43;;;20.40;58.10;;;;;;5033592;28;20021;-75
2022/05/03 07:24:03;;;;;;;10.20;5.65;;;20.50;57.10;;;;;;5034364;28;20125;-75
2022/05/03 07:26:30;;;;;;;25.30;14.63;;;20.60;57.20;;;;;;5033783;28;20028;-76
2022/05/03 07:28:56;;;;;;;10.35;5.30;;;20.70;57.60;;;;;;5033893;28;20025;-77
2022/05/03 07:31:22;;;;;;;12.38;5.40;;;20.80;56.80;;;;;;5049034;28;20025;-76
2022/05/03 07:33:51;;;;;;;11.65;4.78;;;20.80;56.70;;;;;;5033523;28;20041;-74
2022/05/03 07:36:20;;;;;;;10.75;5.30;;;20.80;56.00;;;;;;5033222;28;20054;-75
2022/05/03 07:38:46;;;;;;;10.88;4.90;;;20.70;57.10;;;;;;5033786;28;20025;-76
2022/05/03 07:41:13;;;;;;;10.63;5.53;;;20.70;56.60;;;;;;5033546;28;20025;-76
2022/05/03 07:43:39;;;;;;;9.65;5.20;;;20.70;57.20;;;;;;5048756;28;20371;-77
2022/05/03 07:46:05;;;;;;;15.10;6.60;;;20.70;56.90;;;;;;5033574;28;20083;-78
2022/05/03 07:48:30;;;;;;;13.20;6.28;;;20.80;56.70;;;;;;5033532;28;20101;-75
2022/05/03 07:50:56;;;;;;;14.52;6.05;;;20.90;56.90;;;;;;5033607;28;20415;-75
2022/05/03 07:53:22;;;;;;;8.93;5.15;;;21.00;56.70;;;;;;5032028;28;20056;-74
2022/05/03 07:55:48;;;;;;;10.20;5.28;;;21.00;56.70;;;;;;5033239;28;20075;-74
2022/05/03 07:58:19;;;;;;;9.40;5.07;;;21.10;56.40;;;;;;5033122;28;20037;-74
2022/05/03 08:00:46;;;;;;;19.35;6.38;;;21.10;56.40;;;;;;5033059;28;20029;-76
2022/05/03 08:03:13;;;;;;;16.13;6.30;;;21.00;56.40;;;;;;5033462;28;20030;-75
2022/05/03 08:05:39;;;;;;;12.95;6.50;;;20.80;56.50;;;;;;5032002;28;20375;-78
2022/05/03 08:08:05;;;;;;;22.98;6.22;;;20.70;56.90;;;;;;5033196;28;20025;-75
2022/05/03 08:10:31;;;;;;;11.52;5.30;;;20.70;56.90;;;;;;5033463;28;20021;-75
2022/05/03 08:12:57;;;;;;;13.95;5.28;;;20.70;56.90;;;;;;5048216;28;20025;-74
2022/05/03 08:15:22;;;;;;;10.15;4.70;;;20.70;57.10;;;;;;5031792;28;20055;-77
2022/05/03 08:17:49;;;;;;;12.13;4.82;;;20.80;56.40;;;;;;5033445;28;20045;-74
2022/05/03 08:20:15;;;;;;;10.95;4.70;;;20.70;56.70;;;;;;5033210;28;20029;-75
2022/05/03 08:22:42;;;;;;;14.55;5.38;;;20.80;56.50;;;;;;5031863;28;20040;-76
2022/05/03 08:25:09;;;;;;;10.05;5.00;;;20.70;57.30;;;;;;5048535;28;20104;-77
2022/05/03 08:27:38;;;;;;;9.35;4.78;;;20.80;56.80;;;;;;5033396;28;20029;-75
2022/05/03 08:30:07;;;;;;;12.20;4.38;;;20.80;56.40;;;;;;5032943;28;20052;-77
2022/05/03 08:32:33;;;;;;;12.88;4.30;;;20.80;55.70;;;;;;5033225;28;20029;-76
2022/05/03 08:34:59;;;;;;;8.02;4.68;;;20.90;56.40;;;;;;5031700;28;20062;-77
2022/05/03 08:42:54;;;;;;;9.65;4.97;;;20.60;55.50;;;;;;5033608;28;20036;-78
2022/05/03 08:45:20;;;;;;;6.57;3.97;;;20.60;56.20;;;;;;5032970;28;20500;-76
2022/05/03 08:47:48;;;;;;;9.48;5.88;;;20.70;56.00;;;;;;5031491;28;20033;-80
2022/05/03 08:50:18;;;;;;;25.33;14.77;;;20.70;56.10;;;;;;5033248;28;20080;-76
2022/05/03 08:52:48;;;;;;;18.42;12.07;;;20.80;56.20;;;;;;5033087;28;20228;-78
2022/05/03 08:55:15;;;;;;;17.40;5.90;;;20.90;54.80;;;;;;5048095;28;20029;-77
2022/05/03 08:57:44;;;;;;;13.70;5.13;;;20.80;55.50;;;;;;5048027;28;20065;-78
2022/05/03 09:00:12;;;;;;;7.03;4.85;;;20.80;55.40;;;;;;5048358;28;20022;-74
2022/05/03 09:02:42;;;;;;;7.65;4.78;;;20.90;55.40;;;;;;5032855;28;20124;-76
2022/05/03 09:05:08;;;;;;;9.82;4.32;;;20.90;55.60;;;;;;5032392;28;20026;-74
2022/05/03 09:07:36;;;;;;;8.38;4.47;;;20.90;55.30;;;;;;5032533;28;20033;-75
2022/05/03 09:10:22;;;;;;;8.88;4.88;;;20.90;55.30;;;;;;5032627;28;20348;-75
2022/05/03 09:12:49;;;;;;;11.38;4.72;;;20.90;54.10;;;;;;5033112;28;20033;-76
2022/05/03 09:15:28;;;;;;;10.10;4.80;;;20.90;55.40;;;;;;5036121;28;20030;-76
2022/05/03 09:17:54;;;;;;;10.27;5.07;;;20.90;55.40;;;;;;5051637;28;20133;-76
2022/05/03 09:26:19;;;;;;;13.95;5.50;;;21.00;55.20;;;;;;5036358;28;20562;-76
2022/05/03 09:28:45;;;;;;;7.90;4.57;;;21.20;53.90;;;;;;5036432;28;20026;-74
2022/05/03 09:31:11;;;;;;;8.50;4.30;;;21.20;54.40;;;;;;5036052;28;20032;-75
2022/05/03 09:33:37;;;;;;;11.95;4.97;;;21.30;54.50;;;;;;5036061;28;20033;-75
2022/05/03 09:36:11;;;;;;;6.60;4.20;;;21.30;54.10;;;;;;5036161;28;20049;-76
2022/05/03 09:39:06;;;;;;;8.30;4.72;;;21.30;54.10;;;;;;5036386;28;20113;-76
2022/05/03 09:41:32;;;;;;;9.57;4.85;;;21.40;54.10;;;;;;5031085;28;20140;-74
2022/05/03 09:44:08;;;;;;;7.70;4.38;;;21.40;53.80;;;;;;5036017;28;20045;-74
2022/05/03 09:46:54;;;;;;;7.93;5.03;;;21.40;52.40;;;;;;5034473;28;20479;-74
2022/05/03 09:49:35;;;;;;;8.82;4.78;;;21.50;53.60;;;;;;5035880;28;20025;-74
2022/05/03 09:52:01;;;;;;;10.77;4.82;;;21.50;53.50;;;;;;5035739;28;20335;-75
2022/05/03 09:54:31;;;;;;;7.72;4.63;;;21.60;53.20;;;;;;5035506;28;20029;-75
2022/05/03 09:56:58;;;;;;;10.88;5.13;;;21.60;52.40;;;;;;5035608;28;20049;-74
2022/05/03 09:59:25;;;;;;;10.30;5.00;;;21.60;52.80;;;;;;5035615;28;20100;-75
2022/05/03 10:01:51;;;;;;;10.02;4.50;;;21.70;52.50;;;;;;5035851;28;20347;-76
2022/05/03 10:04:17;;;;;;;8.50;4.43;;;21.70;52.30;;;;;;5050748;28;20021;-75
2022/05/03 10:06:43;;;;;;;10.57;4.57;;;21.70;51.90;;;;;;5035273;28;20030;-76
2022/05/03 10:09:10;;;;;;;10.75;4.50;;;21.80;51.40;;;;;;5035316;28;20030;-75
2022/05/03 10:11:38;;;;;;;11.30;5.10;;;21.80;51.50;;;;;;5035418;28;20437;-78
2022/05/03 10:14:04;;;;;;;7.43;4.47;;;21.90;51.30;;;;;;5035143;28;20032;-74
2022/05/03 10:22:04;;;;;;;7.03;4.38;;;22.20;50.90;;;;;;5034085;28;20045;-75
2022/05/03 10:24:51;;;;;;;8.73;4.40;;;22.30;50.50;;;;;;5034757;28;20029;-77
2022/05/03 10:27:27;;;;;;;7.97;4.32;;;22.30;49.00;;;;;;5050160;28;20048;-76
2022/05/03 10:30:20;;;;;;;9.20;4.85;;;22.30;49.20;;;;;;5050271;28;20521;-75
2022/05/03 10:33:20;;;;;;;8.25;4.50;;;22.40;48.00;;;;;;5034822;28;20029;-76
2022/05/03 10:35:47;;;;;;;11.00;4.55;;;22.50;47.70;;;;;;5034387;28;20045;-76
2022/05/03 10:38:13;;;;;;;9.35;4.45;;;22.60;48.50;;;;;;5049807;28;20171;-76
2022/05/03 10:40:49;;;;;;;9.95;4.97;;;22.70;47.80;;;;;;5034615;28;20029;-76
2022/05/03 10:43:27;;;;;;;10.02;5.10;;;22.70;46.90;;;;;;5034545;28;20025;-76
2022/05/03 10:46:11;;;;;;;11.20;4.70;;;22.60;46.80;;;;;;5034402;28;20040;-75
2022/05/03 10:48:41;;;;;;;12.43;5.18;;;22.60;47.30;;;;;;5049978;28;20021;-74
2022/05/03 10:51:10;;;;;;;10.00;4.88;;;22.70;47.30;;;;;;5033449;28;20041;-77
2022/05/03 10:53:41;;;;;;;12.93;5.38;;;22.70;46.70;;;;;;5034620;28;20178;-76
2022/05/03 10:56:18;;;;;;;9.63;5.63;;;22.80;47.10;;;;;;5034593;28;20056;-76
2022/05/03 10:59:06;;;;;;;13.43;4.97;;;22.90;46.30;;;;;;5034573;28;20056;-77
2022/05/03 11:01:33;;;;;;;15.02;5.22;;;23.00;46.20;;;;;;5034458;28;20093;-76
2022/05/03 11:03:58;;;;;;;7.50;4.43;;;23.20;46.10;;;;;;5034579;28;20030;-75
2022/05/03 11:06:28;;;;;;;8.13;4.75;;;23.20;45.70;;;;;;5034849;28;20029;-75
2022/05/03 11:09:09;;;;;;;8.35;4.22;;;23.30;45.00;;;;;;5034386;28;20084;-76
2022/05/03 11:11:42;;;;;;;9.60;4.80;;;23.40;45.30;;;;;;5034825;28;20109;-78
2022/05/03 11:14:20;;;;;;;9.73;4.50;;;23.40;44.50;;;;;;5034343;28;20037;-75
2022/05/03 11:16:51;;;;;;;9.05;4.57;;;23.50;44.60;;;;;;5034475;28;20029;-75
2022/05/03 11:19:20;;;;;;;10.60;5.78;;;23.60;44.40;;;;;;5034407;28;20022;-74
2022/05/03 11:21:48;;;;;;;11.90;5.10;;;23.70;44.10;;;;;;5033958;28;20102;-75
2022/05/03 11:24:20;;;;;;;9.00;4.20;;;23.70;43.60;;;;;;5034168;28;20022;-75
2022/05/03 11:26:48;;;;;;;8.80;4.30;;;23.80;42.70;;;;;;5034531;28;20028;-74
2022/05/03 11:29:14;;;;;;;7.30;3.67;;;23.90;42.80;;;;;;5033937;28;20026;-77
2022/05/03 11:31:47;;;;;;;7.88;4.55;;;23.90;42.60;;;;;;5034018;28;20053;-76
2022/05/03 11:34:13;;;;;;;8.07;4.53;;;24.00;42.60;;;;;;5033701;28;20083;-76
2022/05/03 11:36:46;;;;;;;12.40;5.35;;;24.10;42.40;;;;;;5033221;28;20045;-75
2022/05/03 11:39:16;;;;;;;6.72;3.42;;;24.20;42.40;;;;;;5033779;28;20035;-75
2022/05/03 11:41:44;;;;;;;8.10;3.72;;;24.20;41.20;;;;;;5033688;28;20017;-78
2022/05/03 11:44:11;;;;;;;9.95;3.70;;;24.20;40.30;;;;;;5033579;28;20061;-76
2022/05/03 11:46:38;;;;;;;7.35;3.10;;;24.20;41.20;;;;;;5033693;28;20029;-77
2022/05/03 11:49:10;;;;;;;7.22;3.65;;;24.20;40.30;;;;;;5033741;28;20128;-74
2022/05/03 11:57:23;;;;;;;9.13;4.15;;;24.40;39.40;;;;;;5033616;28;20114;-75
2022/05/03 11:59:51;;;;;;;8.68;4.38;;;24.50;39.80;;;;;;5033451;28;20576;-75
2022/05/03 12:02:22;;;;;;;7.90;3.70;;;24.60;39.80;;;;;;5033298;28;20025;-74
2022/05/03 12:05:18;;;;;;;9.02;3.40;;;24.70;39.60;;;;;;5033419;28;20100;-76
2022/05/03 12:07:45;;;;;;;11.93;3.90;;;24.80;39.50;;;;;;5033513;28;20383;-75
2022/05/03 12:10:30;;;;;;;7.25;3.45;;;24.90;39.50;;;;;;5033217;28;20076;-74
2022/05/03 12:13:25;;;;;;;7.82;3.45;;;24.90;38.70;;;;;;5048549;28;20029;-75
2022/05/03 12:15:57;;;;;;;7.93;4.00;;;24.80;39.10;;;;;;5048270;28;20021;-75
2022/05/03 12:18:35;;;;;;;10.52;4.60;;;24.80;39.80;;;;;;5033124;28;20034;-76
2022/05/03 12:21:04;;;;;;;9.75;4.70;;;24.80;40.40;;;;;;5048502;28;20108;-78
2022/05/03 12:23:32;;;;;;;7.65;4.60;;;24.80;43.60;;;;;;5048307;28;20025;-76
2022/05/03 12:26:00;;;;;;;8.00;4.43;;;24.80;44.80;;;;;;5033005;28;20025;-76
2022/05/03 12:28:43;;;;;;;10.13;4.65;;;24.80;46.40;;;;;;5032935;28;20399;-75
2022/05/03 12:31:12;;;;;;;9.68;4.55;;;24.80;48.20;;;;;;5048508;28;20111;-79
2022/05/03 12:33:46;;;;;;;8.50;4.70;;;24.70;49.10;;;;;;5031721;28;20471;-75
2022/05/03 12:36:29;;;;;;;13.18;4.45;;;24.70;50.20;;;;;;5033844;28;20104;-75
2022/05/03 12:38:55;;;;;;;9.32;4.80;;;24.60;51.00;;;;;;5032598;28;20036;-77
2022/05/03 12:41:31;;;;;;;12.60;4.82;;;24.70;50.60;;;;;;5033098;28;20021;-76
2022/05/03 12:44:03;;;;;;;19.05;5.47;;;24.90;50.60;;;;;;5032802;28;20029;-75
2022/05/03 12:46:29;;;;;;;11.55;4.90;;;25.10;50.30;;;;;;5032986;28;20052;-75
2022/05/03 12:48:55;;;;;;;9.65;4.53;;;25.30;50.50;;;;;;5035212;28;20056;-76
2022/05/03 12:51:22;;;;;;;8.23;4.32;;;25.50;50.50;;;;;;5036951;28;20033;-78
2022/05/03 12:53:48;;;;;;;11.70;4.65;;;25.50;50.40;;;;;;5036929;28;20522;-76
2022/05/03 12:58:59;;;;;;;8.15;4.60;;;25.60;49.60;;;;;;5036865;28;20156;-75
2022/05/03 13:01:25;;;;;;;10.40;4.50;;;25.70;49.90;;;;;;5036718;28;20515;-74
2022/05/03 13:03:51;;;;;;;16.73;4.80;;;25.70;50.00;;;;;;5036775;28;20021;-75
2022/05/03 13:06:20;;;;;;;8.40;4.72;;;25.70;50.30;;;;;;5037178;28;20025;-79
2022/05/03 13:08:47;;;;;;;9.10;4.50;;;25.70;50.20;;;;;;5034975;28;20471;-75
2022/05/03 13:11:13;;;;;;;7.30;4.13;;;25.60;50.00;;;;;;5036266;28;20026;-75
2022/05/03 13:13:39;;;;;;;9.52;4.28;;;25.60;50.20;;;;;;5036329;28;20033;-77
2022/05/03 13:16:05;;;;;;;9.65;4.82;;;25.70;50.30;;;;;;5036517;28;20024;-76
2022/05/03 13:18:30;;;;;;;8.98;4.47;;;25.60;50.40;;;;;;5036535;28;20087;-76
2022/05/03 13:20:57;;;;;;;10.40;4.75;;;25.60;51.10;;;;;;5036469;28;20037;-79
2022/05/03 13:23:22;;;;;;;15.23;4.90;;;25.50;51.40;;;;;;5036074;28;20104;-76
2022/05/03 13:25:48;;;;;;;7.75;4.15;;;25.60;51.30;;;;;;5036465;28;20116;-74
2022/05/03 13:28:15;;;;;;;9.55;4.45;;;25.60;51.60;;;;;;5036281;28;20034;-75
2022/05/03 13:30:42;;;;;;;9.23;4.88;;;25.60;51.70;;;;;;5036251;28;20022;-75
2022/05/03 13:33:08;;;;;;;8.63;4.22;;;25.60;51.80;;;;;;5036170;28;20382;-75
2022/05/03 13:41:04;;;;;;;8.00;4.20;;;25.40;51.90;;;;;;5036713;28;20430;-77
2022/05/03 13:43:29;;;;;;;7.03;4.10;;;25.30;52.10;;;;;;5034418;28;20083;-75